sensor_id;sensor_type;location;lat;lon;timestamp;temperature;humidity
59847;DHT22;45728;48.788;2.302;2024-02-21T00:00:27;8.10;99.90
59847;DHT22;45728;48.788;2.302;2024-02-21T00:02:53;8.00;99.90
59847;DHT22;45728;48.788;2.302;2024-02-21T00:05:19;8.00;99.90
59847;DHT22;45728;48.788;2.302;2024-02-21T00:07:45;8.00;99.90
59847;DHT22;45728;48.788;2.302;2024-02-21T00:10:11;8.00;99.90
59847;DHT22;45728;48.788;2.302;2024-02-21T00:12:37;7.90;99.90
59847;DHT22;45728;48.788;2.302;2024-02-21T00:15:04;7.90;99.90
59847;DHT22;45728;48.788;2.302;2024-02-21T00:17:30;7.90;99.90
59847;DHT22;45728;48.788;2.302;2024-02-21T00:19:56;7.90;99.90
59847;DHT22;45728;48.788;2.302;2024-02-21T00:22:22;7.80;99.90
59847;DHT22;45728;48.788;2.302;2024-02-21T00:24:48;7.80;99.90
59847;DHT22;45728;48.788;2.302;2024-02-21T00:27:14;7.90;99.90
59847;DHT22;45728;48.788;2.302;2024-02-21T00:29:40;7.80;99.90
59847;DHT22;45728;48.788;2.302;2024-02-21T00:32:06;7.80;99.90
59847;DHT22;45728;48.788;2.302;2024-02-21T00:34:32;7.70;99.90
59847;DHT22;45728;48.788;2.302;2024-02-21T00:36:58;7.70;99.90
59847;DHT22;45728;48.788;2.302;2024-02-21T00:39:24;7.70;99.90
59847;DHT22;45728;48.788;2.302;2024-02-21T00:41:50;7.70;99.90
59847;DHT22;45728;48.788;2.302;2024-02-21T00:44:16;7.70;99.90
59847;DHT22;45728;48.788;2.302;2024-02-21T00:46:42;7.70;99.90
59847;DHT22;45728;48.788;2.302;2024-02-21T00:49:08;7.60;99.90
59847;DHT22;45728;48.788;2.302;2024-02-21T00:51:34;7.60;99.90
59847;DHT22;45728;48.788;2.302;2024-02-21T00:54:00;7.50;99.90
59847;DHT22;45728;48.788;2.302;2024-02-21T00:56:27;7.50;99.90
59847;DHT22;45728;48.788;2.302;2024-02-21T00:58:53;7.50;99.90
59847;DHT22;45728;48.788;2.302;2024-02-21T01:01:26;7.50;99.90
59847;DHT22;45728;48.788;2.302;2024-02-21T01:03:52;7.50;99.90
59847;DHT22;45728;48.788;2.302;2024-02-21T01:06:21;7.50;99.90
59847;DHT22;45728;48.788;2.302;2024-02-21T01:08:47;7.50;99.90
59847;DHT22;45728;48.788;2.302;2024-02-21T01:11:14;7.50;99.90
59847;DHT22;45728;48.788;2.302;2024-02-21T01:13:40;7.40;99.90
59847;DHT22;45728;48.788;2.302;2024-02-21T01:16:06;7.40;99.90
59847;DHT22;45728;48.788;2.302;2024-02-21T01:18:34;7.40;99.90
59847;DHT22;45728;48.788;2.302;2024-02-21T01:21:00;7.40;99.90
59847;DHT22;45728;48.788;2.302;2024-02-21T01:23:26;7.40;99.90
59847;DHT22;45728;48.788;2.302;2024-02-21T01:25:52;7.40;99.90
59847;DHT22;45728;48.788;2.302;2024-02-21T01:28:18;7.30;99.90
59847;DHT22;45728;48.788;2.302;2024-02-21T01:30:44;7.30;99.90
59847;DHT22;45728;48.788;2.302;2024-02-21T01:33:10;7.30;99.90
59847;DHT22;45728;48.788;2.302;2024-02-21T01:35:36;7.30;99.90
59847;DHT22;45728;48.788;2.302;2024-02-21T01:38:03;7.30;99.90
59847;DHT22;45728;48.788;2.302;2024-02-21T01:40:30;7.30;99.90
59847;DHT22;45728;48.788;2.302;2024-02-21T01:42:56;7.30;99.90
59847;DHT22;45728;48.788;2.302;2024-02-21T01:45:22;7.30;99.90
59847;DHT22;45728;48.788;2.302;2024-02-21T01:47:49;7.40;99.90
59847;DHT22;45728;48.788;2.302;2024-02-21T01:50:16;7.40;99.90
59847;DHT22;45728;48.788;2.302;2024-02-21T01:52:46;7.50;99.90
59847;DHT22;45728;48.788;2.302;2024-02-21T01:55:13;7.50;99.90
59847;DHT22;45728;48.788;2.302;2024-02-21T01:57:41;7.50;99.90
59847;DHT22;45728;48.788;2.302;2024-02-21T02:00:09;7.50;99.90
59847;DHT22;45728;48.788;2.302;2024-02-21T02:02:36;7.60;99.90
59847;DHT22;45728;48.788;2.302;2024-02-21T02:05:04;7.60;99.90
59847;DHT22;45728;48.788;2.302;2024-02-21T02:07:32;7.50;99.90
59847;DHT22;45728;48.788;2.302;2024-02-21T02:09:58;7.50;99.90
59847;DHT22;45728;48.788;2.302;2024-02-21T02:12:24;7.50;99.90
59847;DHT22;45728;48.788;2.302;2024-02-21T02:14:59;7.40;99.90
59847;DHT22;45728;48.788;2.302;2024-02-21T02:17:25;7.40;99.90
59847;DHT22;45728;48.788;2.302;2024-02-21T02:19:51;7.40;99.90
59847;DHT22;45728;48.788;2.302;2024-02-21T02:22:22;7.40;99.90
59847;DHT22;45728;48.788;2.302;2024-02-21T02:24:48;7.40;99.90
59847;DHT22;45728;48.788;2.302;2024-02-21T02:27:15;7.30;99.90
59847;DHT22;45728;48.788;2.302;2024-02-21T02:29:59;7.20;99.90
59847;DHT22;45728;48.788;2.302;2024-02-21T02:32:25;7.30;99.90
59847;DHT22;45728;48.788;2.302;2024-02-21T02:34:51;7.20;99.90
59847;DHT22;45728;48.788;2.302;2024-02-21T02:37:17;7.20;99.90
59847;DHT22;45728;48.788;2.302;2024-02-21T02:39:43;7.20;99.90
59847;DHT22;45728;48.788;2.302;2024-02-21T02:42:09;7.20;99.90
59847;DHT22;45728;48.788;2.302;2024-02-21T02:44:35;7.20;99.90
59847;DHT22;45728;48.788;2.302;2024-02-21T02:47:01;7.20;99.90
59847;DHT22;45728;48.788;2.302;2024-02-21T02:49:28;7.30;99.90
59847;DHT22;45728;48.788;2.302;2024-02-21T02:51:54;7.30;99.90
59847;DHT22;45728;48.788;2.302;2024-02-21T02:54:20;7.30;99.90
59847;DHT22;45728;48.788;2.302;2024-02-21T02:56:46;7.30;99.90
59847;DHT22;45728;48.788;2.302;2024-02-21T02:59:12;7.40;99.90
59847;DHT22;45728;48.788;2.302;2024-02-21T03:01:38;7.40;99.90
59847;DHT22;45728;48.788;2.302;2024-02-21T03:04:04;7.40;99.90
59847;DHT22;45728;48.788;2.302;2024-02-21T03:06:30;7.40;99.90
59847;DHT22;45728;48.788;2.302;2024-02-21T03:08:56;7.40;99.90
59847;DHT22;45728;48.788;2.302;2024-02-21T03:11:22;7.40;99.90
59847;DHT22;45728;48.788;2.302;2024-02-21T03:13:55;7.40;99.90
59847;DHT22;45728;48.788;2.302;2024-02-21T03:16:22;7.40;99.90
59847;DHT22;45728;48.788;2.302;2024-02-21T03:18:48;7.40;99.90
59847;DHT22;45728;48.788;2.302;2024-02-21T03:21:14;7.40;99.90
59847;DHT22;45728;48.788;2.302;2024-02-21T03:23:40;7.50;99.90
59847;DHT22;45728;48.788;2.302;2024-02-21T03:26:06;7.50;99.90
59847;DHT22;45728;48.788;2.302;2024-02-21T03:28:32;7.50;99.90
59847;DHT22;45728;48.788;2.302;2024-02-21T03:30:58;7.60;99.90
59847;DHT22;45728;48.788;2.302;2024-02-21T03:33:24;7.50;99.90
59847;DHT22;45728;48.788;2.302;2024-02-21T03:35:50;7.50;99.90
59847;DHT22;45728;48.788;2.302;2024-02-21T03:38:16;7.50;99.90
59847;DHT22;45728;48.788;2.302;2024-02-21T03:40:42;7.50;99.90
59847;DHT22;45728;48.788;2.302;2024-02-21T03:43:08;7.40;99.90
59847;DHT22;45728;48.788;2.302;2024-02-21T03:45:35;7.30;99.90
59847;DHT22;45728;48.788;2.302;2024-02-21T03:48:01;7.40;99.90
59847;DHT22;45728;48.788;2.302;2024-02-21T03:50:27;7.30;99.90
59847;DHT22;45728;48.788;2.302;2024-02-21T03:52:53;7.30;99.90
59847;DHT22;45728;48.788;2.302;2024-02-21T03:55:19;7.30;99.90
59847;DHT22;45728;48.788;2.302;2024-02-21T03:57:45;7.30;99.90
59847;DHT22;45728;48.788;2.302;2024-02-21T04:00:11;7.30;99.90
59847;DHT22;45728;48.788;2.302;2024-02-21T04:02:38;7.40;99.90
59847;DHT22;45728;48.788;2.302;2024-02-21T04:05:04;7.40;99.90
59847;DHT22;45728;48.788;2.302;2024-02-21T04:07:30;7.40;99.90
59847;DHT22;45728;48.788;2.302;2024-02-21T04:09:56;7.40;99.90
59847;DHT22;45728;48.788;2.302;2024-02-21T04:12:23;7.40;99.90
59847;DHT22;45728;48.788;2.302;2024-02-21T04:14:49;7.40;99.90
59847;DHT22;45728;48.788;2.302;2024-02-21T04:17:15;7.40;99.90
59847;DHT22;45728;48.788;2.302;2024-02-21T04:19:41;7.40;99.90
59847;DHT22;45728;48.788;2.302;2024-02-21T04:22:07;7.40;99.90
59847;DHT22;45728;48.788;2.302;2024-02-21T04:24:33;7.40;99.90
59847;DHT22;45728;48.788;2.302;2024-02-21T04:26:59;7.40;99.90
59847;DHT22;45728;48.788;2.302;2024-02-21T04:29:25;7.40;99.90
59847;DHT22;45728;48.788;2.302;2024-02-21T04:31:51;7.40;99.90
59847;DHT22;45728;48.788;2.302;2024-02-21T04:34:17;7.30;99.90
59847;DHT22;45728;48.788;2.302;2024-02-21T04:36:43;7.30;99.90
59847;DHT22;45728;48.788;2.302;2024-02-21T04:39:09;7.30;99.90
59847;DHT22;45728;48.788;2.302;2024-02-21T04:41:35;7.30;99.90
59847;DHT22;45728;48.788;2.302;2024-02-21T04:44:01;7.20;99.90
59847;DHT22;45728;48.788;2.302;2024-02-21T04:46:29;7.20;99.90
59847;DHT22;45728;48.788;2.302;2024-02-21T04:48:55;7.20;99.90
59847;DHT22;45728;48.788;2.302;2024-02-21T04:51:22;7.20;99.90
59847;DHT22;45728;48.788;2.302;2024-02-21T04:53:48;7.20;99.90
59847;DHT22;45728;48.788;2.302;2024-02-21T04:56:15;7.30;99.90
59847;DHT22;45728;48.788;2.302;2024-02-21T04:58:41;7.30;99.90
59847;DHT22;45728;48.788;2.302;2024-02-21T05:01:07;7.30;99.90
59847;DHT22;45728;48.788;2.302;2024-02-21T05:03:33;7.20;99.90
59847;DHT22;45728;48.788;2.302;2024-02-21T05:05:59;7.20;99.90
59847;DHT22;45728;48.788;2.302;2024-02-21T05:08:26;7.20;99.90
59847;DHT22;45728;48.788;2.302;2024-02-21T05:10:53;7.20;99.90
59847;DHT22;45728;48.788;2.302;2024-02-21T05:13:19;7.20;99.90
59847;DHT22;45728;48.788;2.302;2024-02-21T05:15:45;7.20;99.90
59847;DHT22;45728;48.788;2.302;2024-02-21T05:18:11;7.30;99.90
59847;DHT22;45728;48.788;2.302;2024-02-21T05:20:37;7.20;99.90
59847;DHT22;45728;48.788;2.302;2024-02-21T05:23:03;7.10;99.90
59847;DHT22;45728;48.788;2.302;2024-02-21T05:25:29;7.10;99.90
59847;DHT22;45728;48.788;2.302;2024-02-21T05:27:55;7.10;99.90
59847;DHT22;45728;48.788;2.302;2024-02-21T05:30:22;7.10;99.90
59847;DHT22;45728;48.788;2.302;2024-02-21T05:32:48;7.20;99.90
59847;DHT22;45728;48.788;2.302;2024-02-21T05:35:14;7.20;99.90
59847;DHT22;45728;48.788;2.302;2024-02-21T05:37:40;7.10;99.90
59847;DHT22;45728;48.788;2.302;2024-02-21T05:40:06;7.10;99.90
59847;DHT22;45728;48.788;2.302;2024-02-21T05:42:32;7.10;99.90
59847;DHT22;45728;48.788;2.302;2024-02-21T05:44:58;7.10;99.90
59847;DHT22;45728;48.788;2.302;2024-02-21T05:47:24;7.10;99.90
59847;DHT22;45728;48.788;2.302;2024-02-21T05:49:50;7.10;99.90
59847;DHT22;45728;48.788;2.302;2024-02-21T05:52:20;7.10;99.90
59847;DHT22;45728;48.788;2.302;2024-02-21T05:54:46;7.10;99.90
59847;DHT22;45728;48.788;2.302;2024-02-21T05:57:12;7.10;99.90
59847;DHT22;45728;48.788;2.302;2024-02-21T05:59:38;7.10;99.90
59847;DHT22;45728;48.788;2.302;2024-02-21T06:02:06;7.20;99.90
59847;DHT22;45728;48.788;2.302;2024-02-21T06:04:32;7.20;99.90
59847;DHT22;45728;48.788;2.302;2024-02-21T06:06:58;7.10;99.90
59847;DHT22;45728;48.788;2.302;2024-02-21T06:09:24;7.20;99.90
59847;DHT22;45728;48.788;2.302;2024-02-21T06:11:50;7.20;99.90
59847;DHT22;45728;48.788;2.302;2024-02-21T06:14:16;7.20;99.90
59847;DHT22;45728;48.788;2.302;2024-02-21T06:16:43;7.20;99.90
59847;DHT22;45728;48.788;2.302;2024-02-21T06:19:09;7.20;99.90
59847;DHT22;45728;48.788;2.302;2024-02-21T06:21:36;7.20;99.90
59847;DHT22;45728;48.788;2.302;2024-02-21T06:24:03;7.20;99.90
59847;DHT22;45728;48.788;2.302;2024-02-21T06:26:29;7.20;99.90
59847;DHT22;45728;48.788;2.302;2024-02-21T06:28:55;7.20;99.90
59847;DHT22;45728;48.788;2.302;2024-02-21T06:31:21;7.20;99.90
59847;DHT22;45728;48.788;2.302;2024-02-21T06:33:47;7.20;99.90
59847;DHT22;45728;48.788;2.302;2024-02-21T06:36:13;7.20;99.90
59847;DHT22;45728;48.788;2.302;2024-02-21T06:38:39;7.20;99.90
59847;DHT22;45728;48.788;2.302;2024-02-21T06:41:05;7.20;99.90
59847;DHT22;45728;48.788;2.302;2024-02-21T06:43:31;7.20;99.90
59847;DHT22;45728;48.788;2.302;2024-02-21T06:45:57;7.20;99.90
59847;DHT22;45728;48.788;2.302;2024-02-21T06:48:23;7.30;99.90
59847;DHT22;45728;48.788;2.302;2024-02-21T06:50:49;7.20;99.90
59847;DHT22;45728;48.788;2.302;2024-02-21T06:53:15;7.30;99.90
59847;DHT22;45728;48.788;2.302;2024-02-21T06:55:41;7.30;99.90
59847;DHT22;45728;48.788;2.302;2024-02-21T06:58:07;7.30;99.90
59847;DHT22;45728;48.788;2.302;2024-02-21T07:00:38;7.30;99.90
59847;DHT22;45728;48.788;2.302;2024-02-21T07:03:04;7.30;99.90
59847;DHT22;45728;48.788;2.302;2024-02-21T07:05:30;7.40;99.90
59847;DHT22;45728;48.788;2.302;2024-02-21T07:07:56;7.40;99.90
59847;DHT22;45728;48.788;2.302;2024-02-21T07:10:22;7.40;99.90
59847;DHT22;45728;48.788;2.302;2024-02-21T07:12:48;7.40;99.90
59847;DHT22;45728;48.788;2.302;2024-02-21T07:15:14;7.40;99.90
59847;DHT22;45728;48.788;2.302;2024-02-21T07:17:40;7.40;99.90
59847;DHT22;45728;48.788;2.302;2024-02-21T07:20:07;7.40;99.90
59847;DHT22;45728;48.788;2.302;2024-02-21T07:22:33;7.50;99.90
59847;DHT22;45728;48.788;2.302;2024-02-21T07:24:59;7.50;99.90
59847;DHT22;45728;48.788;2.302;2024-02-21T07:27:25;7.50;99.90
59847;DHT22;45728;48.788;2.302;2024-02-21T07:29:57;7.50;99.90
59847;DHT22;45728;48.788;2.302;2024-02-21T07:32:23;7.60;99.90
59847;DHT22;45728;48.788;2.302;2024-02-21T07:34:49;7.60;99.90
59847;DHT22;45728;48.788;2.302;2024-02-21T07:37:15;7.60;99.90
59847;DHT22;45728;48.788;2.302;2024-02-21T07:39:41;7.60;99.90
59847;DHT22;45728;48.788;2.302;2024-02-21T07:42:07;7.70;99.90
59847;DHT22;45728;48.788;2.302;2024-02-21T07:44:33;7.70;99.90
59847;DHT22;45728;48.788;2.302;2024-02-21T07:47:00;7.70;99.90
59847;DHT22;45728;48.788;2.302;2024-02-21T07:49:26;7.70;99.90
59847;DHT22;45728;48.788;2.302;2024-02-21T07:51:52;7.80;99.90
59847;DHT22;45728;48.788;2.302;2024-02-21T07:54:18;7.80;99.90
59847;DHT22;45728;48.788;2.302;2024-02-21T07:56:44;7.80;99.90
59847;DHT22;45728;48.788;2.302;2024-02-21T07:59:10;7.80;99.90
59847;DHT22;45728;48.788;2.302;2024-02-21T08:01:36;7.80;99.90
59847;DHT22;45728;48.788;2.302;2024-02-21T08:04:03;7.80;99.90
59847;DHT22;45728;48.788;2.302;2024-02-21T08:06:30;7.90;99.90
59847;DHT22;45728;48.788;2.302;2024-02-21T08:08:56;7.90;99.90
59847;DHT22;45728;48.788;2.302;2024-02-21T08:11:23;7.90;99.90
59847;DHT22;45728;48.788;2.302;2024-02-21T08:13:49;7.90;99.90
59847;DHT22;45728;48.788;2.302;2024-02-21T08:16:15;7.90;99.90
59847;DHT22;45728;48.788;2.302;2024-02-21T08:18:41;7.90;99.90
59847;DHT22;45728;48.788;2.302;2024-02-21T08:21:09;7.90;99.90
59847;DHT22;45728;48.788;2.302;2024-02-21T08:23:35;8.00;99.90
59847;DHT22;45728;48.788;2.302;2024-02-21T08:26:04;8.00;99.90
59847;DHT22;45728;48.788;2.302;2024-02-21T08:28:31;8.00;99.90
59847;DHT22;45728;48.788;2.302;2024-02-21T08:30:57;8.00;99.90
59847;DHT22;45728;48.788;2.302;2024-02-21T08:33:23;8.00;99.90
59847;DHT22;45728;48.788;2.302;2024-02-21T08:35:51;8.00;99.90
59847;DHT22;45728;48.788;2.302;2024-02-21T08:38:17;8.10;99.90
59847;DHT22;45728;48.788;2.302;2024-02-21T08:40:44;8.10;99.90
59847;DHT22;45728;48.788;2.302;2024-02-21T08:43:10;8.10;99.90
59847;DHT22;45728;48.788;2.302;2024-02-21T08:45:37;8.20;99.90
59847;DHT22;45728;48.788;2.302;2024-02-21T08:48:03;8.20;99.90
59847;DHT22;45728;48.788;2.302;2024-02-21T08:50:30;8.20;99.90
59847;DHT22;45728;48.788;2.302;2024-02-21T08:52:56;8.20;99.90
59847;DHT22;45728;48.788;2.302;2024-02-21T08:55:22;8.30;99.90
59847;DHT22;45728;48.788;2.302;2024-02-21T08:57:48;8.40;99.90
59847;DHT22;45728;48.788;2.302;2024-02-21T09:00:15;8.40;99.90
59847;DHT22;45728;48.788;2.302;2024-02-21T09:02:41;8.40;99.90
59847;DHT22;45728;48.788;2.302;2024-02-21T09:05:13;8.50;99.90
59847;DHT22;45728;48.788;2.302;2024-02-21T09:07:39;8.60;99.90
59847;DHT22;45728;48.788;2.302;2024-02-21T09:10:06;8.60;99.90
59847;DHT22;45728;48.788;2.302;2024-02-21T09:12:32;8.70;99.90
59847;DHT22;45728;48.788;2.302;2024-02-21T09:14:58;8.70;99.90
59847;DHT22;45728;48.788;2.302;2024-02-21T09:17:24;8.80;99.90
59847;DHT22;45728;48.788;2.302;2024-02-21T09:19:51;8.70;99.90
59847;DHT22;45728;48.788;2.302;2024-02-21T09:22:17;8.80;99.90
59847;DHT22;45728;48.788;2.302;2024-02-21T09:24:43;8.90;99.90
59847;DHT22;45728;48.788;2.302;2024-02-21T09:27:09;8.90;99.90
59847;DHT22;45728;48.788;2.302;2024-02-21T09:29:35;8.90;99.90
59847;DHT22;45728;48.788;2.302;2024-02-21T09:32:02;9.00;99.90
59847;DHT22;45728;48.788;2.302;2024-02-21T09:34:29;9.00;99.90
59847;DHT22;45728;48.788;2.302;2024-02-21T09:36:55;9.00;99.90
59847;DHT22;45728;48.788;2.302;2024-02-21T09:39:21;9.00;99.90
59847;DHT22;45728;48.788;2.302;2024-02-21T09:41:53;9.10;99.90
59847;DHT22;45728;48.788;2.302;2024-02-21T09:44:24;9.00;99.90
59847;DHT22;45728;48.788;2.302;2024-02-21T09:47:02;9.10;99.90
59847;DHT22;45728;48.788;2.302;2024-02-21T09:49:31;9.10;99.90
59847;DHT22;45728;48.788;2.302;2024-02-21T09:52:07;9.20;99.90
59847;DHT22;45728;48.788;2.302;2024-02-21T09:54:33;9.20;99.90
59847;DHT22;45728;48.788;2.302;2024-02-21T09:57:00;9.20;99.90
59847;DHT22;45728;48.788;2.302;2024-02-21T09:59:32;9.20;99.90
59847;DHT22;45728;48.788;2.302;2024-02-21T10:01:58;9.30;99.90
59847;DHT22;45728;48.788;2.302;2024-02-21T10:04:27;9.30;99.90
59847;DHT22;45728;48.788;2.302;2024-02-21T10:06:54;9.30;99.90
59847;DHT22;45728;48.788;2.302;2024-02-21T10:09:24;9.30;99.90
59847;DHT22;45728;48.788;2.302;2024-02-21T10:11:54;9.40;99.90
59847;DHT22;45728;48.788;2.302;2024-02-21T10:14:20;9.40;99.90
59847;DHT22;45728;48.788;2.302;2024-02-21T10:16:48;9.40;99.90
59847;DHT22;45728;48.788;2.302;2024-02-21T10:19:19;9.40;99.90
59847;DHT22;45728;48.788;2.302;2024-02-21T10:22:02;9.60;99.90
59847;DHT22;45728;48.788;2.302;2024-02-21T10:24:35;9.60;99.90
59847;DHT22;45728;48.788;2.302;2024-02-21T10:27:05;9.70;99.90
59847;DHT22;45728;48.788;2.302;2024-02-21T10:29:34;9.80;99.90
59847;DHT22;45728;48.788;2.302;2024-02-21T10:32:11;9.80;99.90
59847;DHT22;45728;48.788;2.302;2024-02-21T10:34:38;9.90;99.90
59847;DHT22;45728;48.788;2.302;2024-02-21T10:37:06;10.00;99.90
59847;DHT22;45728;48.788;2.302;2024-02-21T10:39:34;10.00;99.90
59847;DHT22;45728;48.788;2.302;2024-02-21T10:42:01;10.00;99.90
59847;DHT22;45728;48.788;2.302;2024-02-21T10:44:37;10.10;99.90
59847;DHT22;45728;48.788;2.302;2024-02-21T10:47:08;10.20;99.90
59847;DHT22;45728;48.788;2.302;2024-02-21T10:49:40;10.30;99.90
59847;DHT22;45728;48.788;2.302;2024-02-21T10:52:14;10.30;99.90
59847;DHT22;45728;48.788;2.302;2024-02-21T10:54:55;10.30;99.90
59847;DHT22;45728;48.788;2.302;2024-02-21T10:57:23;10.30;99.90
59847;DHT22;45728;48.788;2.302;2024-02-21T10:59:51;10.40;99.90
59847;DHT22;45728;48.788;2.302;2024-02-21T11:02:17;10.50;99.90
59847;DHT22;45728;48.788;2.302;2024-02-21T11:04:43;10.50;99.90
59847;DHT22;45728;48.788;2.302;2024-02-21T11:07:10;10.60;99.90
59847;DHT22;45728;48.788;2.302;2024-02-21T11:09:36;10.60;99.90
59847;DHT22;45728;48.788;2.302;2024-02-21T11:12:04;10.70;99.90
59847;DHT22;45728;48.788;2.302;2024-02-21T11:14:31;10.60;99.90
59847;DHT22;45728;48.788;2.302;2024-02-21T11:16:58;10.60;99.90
59847;DHT22;45728;48.788;2.302;2024-02-21T11:19:26;10.60;99.90
59847;DHT22;45728;48.788;2.302;2024-02-21T11:21:54;10.60;99.90
59847;DHT22;45728;48.788;2.302;2024-02-21T11:24:31;10.60;99.90
59847;DHT22;45728;48.788;2.302;2024-02-21T11:27:14;10.60;99.90
59847;DHT22;45728;48.788;2.302;2024-02-21T11:29:48;10.60;99.90
59847;DHT22;45728;48.788;2.302;2024-02-21T11:32:20;10.60;99.90
59847;DHT22;45728;48.788;2.302;2024-02-21T11:35:04;10.70;99.90
59847;DHT22;45728;48.788;2.302;2024-02-21T11:37:32;10.70;99.90
59847;DHT22;45728;48.788;2.302;2024-02-21T11:40:04;10.80;99.90
59847;DHT22;45728;48.788;2.302;2024-02-21T11:42:33;10.70;99.90
59847;DHT22;45728;48.788;2.302;2024-02-21T11:45:00;10.70;99.90
59847;DHT22;45728;48.788;2.302;2024-02-21T11:47:28;10.70;99.90
59847;DHT22;45728;48.788;2.302;2024-02-21T11:49:55;10.70;99.90
59847;DHT22;45728;48.788;2.302;2024-02-21T11:52:25;10.80;99.90
59847;DHT22;45728;48.788;2.302;2024-02-21T11:54:52;10.90;99.90
59847;DHT22;45728;48.788;2.302;2024-02-21T11:57:18;11.00;99.90
59847;DHT22;45728;48.788;2.302;2024-02-21T11:59:45;11.00;99.90
59847;DHT22;45728;48.788;2.302;2024-02-21T12:02:14;11.00;99.90
59847;DHT22;45728;48.788;2.302;2024-02-21T12:04:40;11.00;99.90
59847;DHT22;45728;48.788;2.302;2024-02-21T12:07:07;11.00;99.90
59847;DHT22;45728;48.788;2.302;2024-02-21T12:09:34;11.10;99.90
59847;DHT22;45728;48.788;2.302;2024-02-21T12:12:05;11.20;99.90
59847;DHT22;45728;48.788;2.302;2024-02-21T12:14:33;11.10;99.90
59847;DHT22;45728;48.788;2.302;2024-02-21T12:17:01;11.20;99.90
59847;DHT22;45728;48.788;2.302;2024-02-21T12:19:30;11.20;99.90
59847;DHT22;45728;48.788;2.302;2024-02-21T12:21:59;11.10;99.90
59847;DHT22;45728;48.788;2.302;2024-02-21T12:24:26;11.10;99.90
59847;DHT22;45728;48.788;2.302;2024-02-21T12:26:53;11.10;99.90
59847;DHT22;45728;48.788;2.302;2024-02-21T12:29:20;11.10;99.90
59847;DHT22;45728;48.788;2.302;2024-02-21T12:31:46;11.10;99.90
59847;DHT22;45728;48.788;2.302;2024-02-21T12:34:14;11.10;99.90
59847;DHT22;45728;48.788;2.302;2024-02-21T12:36:44;11.20;99.90
59847;DHT22;45728;48.788;2.302;2024-02-21T12:39:12;11.20;99.90
59847;DHT22;45728;48.788;2.302;2024-02-21T12:41:39;11.30;99.90
59847;DHT22;45728;48.788;2.302;2024-02-21T12:44:07;11.20;99.90
59847;DHT22;45728;48.788;2.302;2024-02-21T12:46:34;11.20;99.90
59847;DHT22;45728;48.788;2.302;2024-02-21T12:49:01;11.20;99.90
59847;DHT22;45728;48.788;2.302;2024-02-21T12:51:27;11.30;99.90
59847;DHT22;45728;48.788;2.302;2024-02-21T12:53:53;11.30;99.90
59847;DHT22;45728;48.788;2.302;2024-02-21T12:56:19;11.20;99.90
59847;DHT22;45728;48.788;2.302;2024-02-21T12:58:45;11.20;99.90
59847;DHT22;45728;48.788;2.302;2024-02-21T13:01:11;11.30;99.90
59847;DHT22;45728;48.788;2.302;2024-02-21T13:03:38;11.20;99.90
59847;DHT22;45728;48.788;2.302;2024-02-21T13:06:05;11.10;99.90
59847;DHT22;45728;48.788;2.302;2024-02-21T13:08:31;11.20;99.90
59847;DHT22;45728;48.788;2.302;2024-02-21T13:10:57;11.20;99.90
59847;DHT22;45728;48.788;2.302;2024-02-21T13:13:23;11.30;99.90
59847;DHT22;45728;48.788;2.302;2024-02-21T13:15:49;11.20;99.90
59847;DHT22;45728;48.788;2.302;2024-02-21T13:18:15;11.10;99.90
59847;DHT22;45728;48.788;2.302;2024-02-21T13:20:41;11.10;99.90
59847;DHT22;45728;48.788;2.302;2024-02-21T13:23:07;11.10;99.90
59847;DHT22;45728;48.788;2.302;2024-02-21T13:25:33;11.00;99.90
59847;DHT22;45728;48.788;2.302;2024-02-21T13:28:00;11.00;99.90
59847;DHT22;45728;48.788;2.302;2024-02-21T13:30:26;10.90;99.90
59847;DHT22;45728;48.788;2.302;2024-02-21T13:32:53;11.00;99.90
59847;DHT22;45728;48.788;2.302;2024-02-21T13:35:20;10.90;99.90
59847;DHT22;45728;48.788;2.302;2024-02-21T13:37:46;10.90;99.90
59847;DHT22;45728;48.788;2.302;2024-02-21T13:40:12;10.90;99.90
59847;DHT22;45728;48.788;2.302;2024-02-21T13:42:39;10.80;99.90
59847;DHT22;45728;48.788;2.302;2024-02-21T13:45:06;10.80;99.90
59847;DHT22;45728;48.788;2.302;2024-02-21T13:47:35;10.60;99.90
59847;DHT22;45728;48.788;2.302;2024-02-21T13:50:05;10.40;99.90
59847;DHT22;45728;48.788;2.302;2024-02-21T13:52:37;10.50;99.90
59847;DHT22;45728;48.788;2.302;2024-02-21T13:55:04;10.40;99.90
59847;DHT22;45728;48.788;2.302;2024-02-21T13:57:30;10.30;99.90
59847;DHT22;45728;48.788;2.302;2024-02-21T13:59:56;10.30;99.90
59847;DHT22;45728;48.788;2.302;2024-02-21T14:02:22;10.30;99.90
59847;DHT22;45728;48.788;2.302;2024-02-21T14:04:48;10.30;99.90
59847;DHT22;45728;48.788;2.302;2024-02-21T14:07:14;10.20;99.90
59847;DHT22;45728;48.788;2.302;2024-02-21T14:09:40;10.20;99.90
59847;DHT22;45728;48.788;2.302;2024-02-21T14:12:07;10.10;99.90
59847;DHT22;45728;48.788;2.302;2024-02-21T14:14:36;10.10;99.90
59847;DHT22;45728;48.788;2.302;2024-02-21T14:17:03;10.10;99.90
59847;DHT22;45728;48.788;2.302;2024-02-21T14:19:30;10.10;99.90
59847;DHT22;45728;48.788;2.302;2024-02-21T14:21:56;10.00;99.90
59847;DHT22;45728;48.788;2.302;2024-02-21T14:24:23;9.90;99.90
59847;DHT22;45728;48.788;2.302;2024-02-21T14:26:49;9.90;99.90
59847;DHT22;45728;48.788;2.302;2024-02-21T14:29:15;9.90;99.90
59847;DHT22;45728;48.788;2.302;2024-02-21T14:31:41;9.90;99.90
59847;DHT22;45728;48.788;2.302;2024-02-21T14:34:08;9.90;99.90
59847;DHT22;45728;48.788;2.302;2024-02-21T14:36:34;9.90;99.90
59847;DHT22;45728;48.788;2.302;2024-02-21T14:39:00;9.80;99.90
59847;DHT22;45728;48.788;2.302;2024-02-21T14:41:26;9.80;99.90
59847;DHT22;45728;48.788;2.302;2024-02-21T14:43:54;9.80;99.90
59847;DHT22;45728;48.788;2.302;2024-02-21T14:46:21;9.90;99.90
59847;DHT22;45728;48.788;2.302;2024-02-21T14:48:47;9.90;99.90
59847;DHT22;45728;48.788;2.302;2024-02-21T14:51:13;9.80;99.90
59847;DHT22;45728;48.788;2.302;2024-02-21T14:53:39;9.80;99.90
59847;DHT22;45728;48.788;2.302;2024-02-21T14:56:12;9.80;99.90
59847;DHT22;45728;48.788;2.302;2024-02-21T14:58:41;9.80;99.90
59847;DHT22;45728;48.788;2.302;2024-02-21T15:01:08;9.80;99.90
59847;DHT22;45728;48.788;2.302;2024-02-21T15:03:34;9.80;99.90
59847;DHT22;45728;48.788;2.302;2024-02-21T15:06:02;9.80;99.90
59847;DHT22;45728;48.788;2.302;2024-02-21T15:08:28;9.80;99.90
59847;DHT22;45728;48.788;2.302;2024-02-21T15:10:54;9.80;99.90
59847;DHT22;45728;48.788;2.302;2024-02-21T15:13:20;9.80;99.90
59847;DHT22;45728;48.788;2.302;2024-02-21T15:15:47;9.90;99.90
59847;DHT22;45728;48.788;2.302;2024-02-21T15:18:14;9.80;99.90
59847;DHT22;45728;48.788;2.302;2024-02-21T15:20:41;9.80;99.90
59847;DHT22;45728;48.788;2.302;2024-02-21T15:23:07;9.80;99.90
59847;DHT22;45728;48.788;2.302;2024-02-21T15:25:33;9.80;99.90
59847;DHT22;45728;48.788;2.302;2024-02-21T15:27:59;9.80;99.90
59847;DHT22;45728;48.788;2.302;2024-02-21T15:30:26;9.80;99.90
59847;DHT22;45728;48.788;2.302;2024-02-21T15:32:53;9.80;99.90
59847;DHT22;45728;48.788;2.302;2024-02-21T15:35:21;9.80;99.90
59847;DHT22;45728;48.788;2.302;2024-02-21T15:37:47;9.80;99.90
59847;DHT22;45728;48.788;2.302;2024-02-21T15:40:13;9.80;99.90